sensor_id;sensor_type;location;lat;lon;timestamp;P1;durP1;ratioP1;P2;durP2;ratioP2
26600;SDS011;14241;49.260;10.496;2023-02-22T00:00:51;6.47;;;5.88;;
26600;SDS011;14241;49.260;10.496;2023-02-22T00:05:42;27.17;;;5.97;;
26600;SDS011;14241;49.260;10.496;2023-02-22T00:08:15;6.70;;;5.90;;
26600;SDS011;14241;49.260;10.496;2023-02-22T00:10:41;5.80;;;5.30;;
26600;SDS011;14241;49.260;10.496;2023-02-22T00:13:07;6.53;;;5.93;;
26600;SDS011;14241;49.260;10.496;2023-02-22T00:15:33;14.23;;;5.15;;
26600;SDS011;14241;49.260;10.496;2023-02-22T00:17:58;25.00;;;5.55;;
26600;SDS011;14241;49.260;10.496;2023-02-22T00:20:23;5.15;;;4.65;;
26600;SDS011;14241;49.260;10.496;2023-02-22T00:22:49;5.88;;;5.30;;
26600;SDS011;14241;49.260;10.496;2023-02-22T00:25:16;5.82;;;5.32;;
26600;SDS011;14241;49.260;10.496;2023-02-22T00:27:42;7.65;;;6.78;;
26600;SDS011;14241;49.260;10.496;2023-02-22T00:30:08;6.78;;;6.10;;
26600;SDS011;14241;49.260;10.496;2023-02-22T00:32:34;7.90;;;7.10;;
26600;SDS011;14241;49.260;10.496;2023-02-22T00:34:59;8.43;;;7.53;;
26600;SDS011;14241;49.260;10.496;2023-02-22T00:37:24;7.80;;;7.00;;
26600;SDS011;14241;49.260;10.496;2023-02-22T00:39:50;10.05;;;7.78;;
26600;SDS011;14241;49.260;10.496;2023-02-22T00:42:15;13.90;;;10.18;;
26600;SDS011;14241;49.260;10.496;2023-02-22T00:44:42;17.67;;;8.88;;
26600;SDS011;14241;49.260;10.496;2023-02-22T00:47:07;29.27;;;11.32;;
26600;SDS011;14241;49.260;10.496;2023-02-22T00:49:33;24.02;;;11.98;;
26600;SDS011;14241;49.260;10.496;2023-02-22T00:51:59;35.20;;;12.70;;
26600;SDS011;14241;49.260;10.496;2023-02-22T00:54:24;36.08;;;12.05;;
26600;SDS011;14241;49.260;10.496;2023-02-22T00:56:49;40.60;;;10.07;;
26600;SDS011;14241;49.260;10.496;2023-02-22T00:59:15;47.55;;;10.32;;
26600;SDS011;14241;49.260;10.496;2023-02-22T01:01:40;27.38;;;11.18;;
26600;SDS011;14241;49.260;10.496;2023-02-22T01:04:06;34.25;;;7.85;;
26600;SDS011;14241;49.260;10.496;2023-02-22T01:06:31;34.33;;;8.13;;
26600;SDS011;14241;49.260;10.496;2023-02-22T01:08:56;8.32;;;7.53;;
26600;SDS011;14241;49.260;10.496;2023-02-22T01:11:22;11.07;;;9.00;;
26600;SDS011;14241;49.260;10.496;2023-02-22T01:13:47;9.10;;;8.20;;
26600;SDS011;14241;49.260;10.496;2023-02-22T01:16:12;9.37;;;8.40;;
26600;SDS011;14241;49.260;10.496;2023-02-22T01:18:37;7.53;;;6.57;;
26600;SDS011;14241;49.260;10.496;2023-02-22T01:21:03;7.95;;;7.15;;
26600;SDS011;14241;49.260;10.496;2023-02-22T01:23:28;7.40;;;6.70;;
26600;SDS011;14241;49.260;10.496;2023-02-22T01:25:53;6.85;;;6.28;;
26600;SDS011;14241;49.260;10.496;2023-02-22T01:28:19;5.87;;;5.40;;
26600;SDS011;14241;49.260;10.496;2023-02-22T01:30:46;5.93;;;5.32;;
26600;SDS011;14241;49.260;10.496;2023-02-22T01:33:12;10.48;;;5.57;;
26600;SDS011;14241;49.260;10.496;2023-02-22T01:35:37;14.83;;;6.00;;
26600;SDS011;14241;49.260;10.496;2023-02-22T01:38:06;18.73;;;6.55;;
26600;SDS011;14241;49.260;10.496;2023-02-22T01:40:36;9.35;;;6.65;;
26600;SDS011;14241;49.260;10.496;2023-02-22T01:43:13;7.30;;;6.18;;
26600;SDS011;14241;49.260;10.496;2023-02-22T01:45:42;9.48;;;6.32;;
26600;SDS011;14241;49.260;10.496;2023-02-22T01:50:34;6.70;;;6.13;;
26600;SDS011;14241;49.260;10.496;2023-02-22T01:53:01;6.28;;;5.68;;
26600;SDS011;14241;49.260;10.496;2023-02-22T01:55:27;7.00;;;6.30;;
26600;SDS011;14241;49.260;10.496;2023-02-22T01:57:52;7.30;;;6.70;;
26600;SDS011;14241;49.260;10.496;2023-02-22T02:00:18;8.18;;;7.47;;
26600;SDS011;14241;49.260;10.496;2023-02-22T02:02:49;8.13;;;7.40;;
26600;SDS011;14241;49.260;10.496;2023-02-22T02:05:16;10.13;;;9.13;;
26600;SDS011;14241;49.260;10.496;2023-02-22T02:07:42;11.40;;;10.30;;
26600;SDS011;14241;49.260;10.496;2023-02-22T02:10:11;12.35;;;11.18;;
26600;SDS011;14241;49.260;10.496;2023-02-22T02:12:38;12.98;;;11.68;;
26600;SDS011;14241;49.260;10.496;2023-02-22T02:15:25;14.32;;;12.93;;
26600;SDS011;14241;49.260;10.496;2023-02-22T02:17:53;13.73;;;12.40;;
26600;SDS011;14241;49.260;10.496;2023-02-22T02:25:36;14.43;;;12.90;;
26600;SDS011;14241;49.260;10.496;2023-02-22T02:35:49;13.85;;;12.30;;
26600;SDS011;14241;49.260;10.496;2023-02-22T02:41:03;14.00;;;11.48;;
26600;SDS011;14241;49.260;10.496;2023-02-22T02:48:21;13.30;;;11.07;;
26600;SDS011;14241;49.260;10.496;2023-02-22T02:50:47;11.68;;;10.52;;
26600;SDS011;14241;49.260;10.496;2023-02-22T02:53:14;11.00;;;10.00;;
26600;SDS011;14241;49.260;10.496;2023-02-22T02:55:41;10.43;;;9.45;;
26600;SDS011;14241;49.260;10.496;2023-02-22T02:58:07;10.13;;;9.18;;
26600;SDS011;14241;49.260;10.496;2023-02-22T03:00:34;9.65;;;8.75;;
26600;SDS011;14241;49.260;10.496;2023-02-22T03:03:26;9.68;;;8.75;;
26600;SDS011;14241;49.260;10.496;2023-02-22T03:06:07;9.70;;;8.80;;
26600;SDS011;14241;49.260;10.496;2023-02-22T03:08:40;9.45;;;8.65;;
26600;SDS011;14241;49.260;10.496;2023-02-22T03:11:09;18.98;;;9.57;;
26600;SDS011;14241;49.260;10.496;2023-02-22T03:16:20;10.20;;;9.27;;
26600;SDS011;14241;49.260;10.496;2023-02-22T03:18:55;10.30;;;9.40;;
26600;SDS011;14241;49.260;10.496;2023-02-22T03:26:39;10.82;;;9.82;;
26600;SDS011;14241;49.260;10.496;2023-02-22T03:29:05;11.20;;;10.10;;
26600;SDS011;14241;49.260;10.496;2023-02-22T03:31:33;10.30;;;9.25;;
26600;SDS011;14241;49.260;10.496;2023-02-22T03:34:03;10.18;;;9.23;;
26600;SDS011;14241;49.260;10.496;2023-02-22T03:36:32;10.82;;;9.70;;
26600;SDS011;14241;49.260;10.496;2023-02-22T03:38:58;10.80;;;9.70;;
26600;SDS011;14241;49.260;10.496;2023-02-22T03:41:25;11.02;;;9.93;;
26600;SDS011;14241;49.260;10.496;2023-02-22T03:44:01;11.05;;;10.05;;
26600;SDS011;14241;49.260;10.496;2023-02-22T03:46:28;12.15;;;10.95;;
26600;SDS011;14241;49.260;10.496;2023-02-22T03:51:29;12.05;;;10.85;;
26600;SDS011;14241;49.260;10.496;2023-02-22T03:53:54;11.93;;;10.73;;
26600;SDS011;14241;49.260;10.496;2023-02-22T03:56:24;12.57;;;11.38;;
26600;SDS011;14241;49.260;10.496;2023-02-22T03:58:52;12.48;;;11.27;;
26600;SDS011;14241;49.260;10.496;2023-02-22T04:01:17;13.10;;;11.77;;
26600;SDS011;14241;49.260;10.496;2023-02-22T04:03:44;12.85;;;11.55;;
26600;SDS011;14241;49.260;10.496;2023-02-22T04:06:09;12.85;;;11.57;;
26600;SDS011;14241;49.260;10.496;2023-02-22T04:08:34;13.70;;;12.30;;
26600;SDS011;14241;49.260;10.496;2023-02-22T04:10:59;14.02;;;12.63;;
26600;SDS011;14241;49.260;10.496;2023-02-22T04:13:25;12.50;;;11.30;;
26600;SDS011;14241;49.260;10.496;2023-02-22T04:15:51;12.52;;;11.23;;
26600;SDS011;14241;49.260;10.496;2023-02-22T04:18:16;13.32;;;12.02;;
26600;SDS011;14241;49.260;10.496;2023-02-22T04:20:42;12.40;;;11.30;;
26600;SDS011;14241;49.260;10.496;2023-02-22T04:23:08;12.82;;;11.05;;
26600;SDS011;14241;49.260;10.496;2023-02-22T04:25:34;12.80;;;11.50;;
26600;SDS011;14241;49.260;10.496;2023-02-22T04:27:59;12.57;;;11.37;;
26600;SDS011;14241;49.260;10.496;2023-02-22T04:30:24;12.77;;;11.50;;
26600;SDS011;14241;49.260;10.496;2023-02-22T04:32:49;13.00;;;11.50;;
26600;SDS011;14241;49.260;10.496;2023-02-22T04:35:15;13.43;;;12.03;;
26600;SDS011;14241;49.260;10.496;2023-02-22T04:37:40;14.43;;;11.85;;
26600;SDS011;14241;49.260;10.496;2023-02-22T04:40:05;16.83;;;12.32;;
26600;SDS011;14241;49.260;10.496;2023-02-22T04:42:32;15.02;;;13.48;;
26600;SDS011;14241;49.260;10.496;2023-02-22T04:44:57;16.15;;;14.00;;
26600;SDS011;14241;49.260;10.496;2023-02-22T04:47:22;13.90;;;12.17;;
26600;SDS011;14241;49.260;10.496;2023-02-22T04:49:47;14.80;;;13.20;;
26600;SDS011;14241;49.260;10.496;2023-02-22T04:52:13;14.40;;;12.23;;
26600;SDS011;14241;49.260;10.496;2023-02-22T04:54:39;13.85;;;12.45;;
26600;SDS011;14241;49.260;10.496;2023-02-22T04:57:05;15.77;;;13.10;;
26600;SDS011;14241;49.260;10.496;2023-02-22T04:59:30;14.00;;;12.43;;
26600;SDS011;14241;49.260;10.496;2023-02-22T05:01:57;14.52;;;12.93;;
26600;SDS011;14241;49.260;10.496;2023-02-22T05:04:22;14.65;;;13.13;;
26600;SDS011;14241;49.260;10.496;2023-02-22T05:06:48;14.63;;;13.10;;
26600;SDS011;14241;49.260;10.496;2023-02-22T05:09:13;18.70;;;13.07;;
26600;SDS011;14241;49.260;10.496;2023-02-22T05:11:39;13.93;;;12.35;;
26600;SDS011;14241;49.260;10.496;2023-02-22T05:14:04;13.77;;;12.45;;
26600;SDS011;14241;49.260;10.496;2023-02-22T05:16:29;14.07;;;11.85;;
26600;SDS011;14241;49.260;10.496;2023-02-22T05:18:54;15.03;;;13.43;;
26600;SDS011;14241;49.260;10.496;2023-02-22T05:21:20;57.30;;;41.33;;
26600;SDS011;14241;49.260;10.496;2023-02-22T05:23:45;16.10;;;14.50;;
26600;SDS011;14241;49.260;10.496;2023-02-22T05:26:10;13.33;;;11.43;;
26600;SDS011;14241;49.260;10.496;2023-02-22T05:28:35;12.85;;;11.27;;
26600;SDS011;14241;49.260;10.496;2023-02-22T05:31:00;12.43;;;11.18;;
26600;SDS011;14241;49.260;10.496;2023-02-22T05:33:26;12.63;;;11.00;;
26600;SDS011;14241;49.260;10.496;2023-02-22T05:35:51;12.03;;;10.83;;
26600;SDS011;14241;49.260;10.496;2023-02-22T05:38:16;12.90;;;11.57;;
26600;SDS011;14241;49.260;10.496;2023-02-22T05:40:42;16.33;;;14.77;;
26600;SDS011;14241;49.260;10.496;2023-02-22T05:43:07;14.45;;;13.18;;
26600;SDS011;14241;49.260;10.496;2023-02-22T05:45:33;12.70;;;11.40;;
26600;SDS011;14241;49.260;10.496;2023-02-22T05:47:58;13.20;;;11.45;;
26600;SDS011;14241;49.260;10.496;2023-02-22T05:50:24;12.13;;;10.93;;
26600;SDS011;14241;49.260;10.496;2023-02-22T05:52:49;12.68;;;10.90;;
26600;SDS011;14241;49.260;10.496;2023-02-22T05:55:17;13.07;;;11.57;;
26600;SDS011;14241;49.260;10.496;2023-02-22T05:57:42;12.18;;;10.98;;
26600;SDS011;14241;49.260;10.496;2023-02-22T06:00:08;11.93;;;10.82;;
26600;SDS011;14241;49.260;10.496;2023-02-22T06:02:33;12.13;;;10.93;;
26600;SDS011;14241;49.260;10.496;2023-02-22T06:04:58;13.23;;;11.83;;
26600;SDS011;14241;49.260;10.496;2023-02-22T06:07:24;12.63;;;11.32;;
26600;SDS011;14241;49.260;10.496;2023-02-22T06:09:49;13.30;;;11.23;;
26600;SDS011;14241;49.260;10.496;2023-02-22T06:12:14;13.87;;;11.47;;
26600;SDS011;14241;49.260;10.496;2023-02-22T06:14:40;14.02;;;11.98;;
26600;SDS011;14241;49.260;10.496;2023-02-22T06:17:10;13.50;;;12.07;;
26600;SDS011;14241;49.260;10.496;2023-02-22T06:19:36;13.55;;;12.02;;
26600;SDS011;14241;49.260;10.496;2023-02-22T06:22:01;12.87;;;11.10;;
26600;SDS011;14241;49.260;10.496;2023-02-22T06:24:27;13.82;;;12.45;;
26600;SDS011;14241;49.260;10.496;2023-02-22T06:26:55;14.15;;;12.65;;
26600;SDS011;14241;49.260;10.496;2023-02-22T06:29:21;14.50;;;13.00;;
26600;SDS011;14241;49.260;10.496;2023-02-22T06:31:47;14.73;;;13.02;;
26600;SDS011;14241;49.260;10.496;2023-02-22T06:34:12;16.80;;;13.27;;
26600;SDS011;14241;49.260;10.496;2023-02-22T06:36:37;17.03;;;14.07;;
26600;SDS011;14241;49.260;10.496;2023-02-22T06:39:02;16.27;;;14.55;;
26600;SDS011;14241;49.260;10.496;2023-02-22T06:41:28;17.83;;;14.93;;
26600;SDS011;14241;49.260;10.496;2023-02-22T06:43:53;17.80;;;15.23;;
26600;SDS011;14241;49.260;10.496;2023-02-22T06:46:18;36.33;;;27.90;;
26600;SDS011;14241;49.260;10.496;2023-02-22T06:48:45;47.45;;;33.10;;
26600;SDS011;14241;49.260;10.496;2023-02-22T06:51:10;31.85;;;26.23;;
26600;SDS011;14241;49.260;10.496;2023-02-22T06:53:35;26.50;;;21.43;;
26600;SDS011;14241;49.260;10.496;2023-02-22T06:56:00;23.27;;;19.03;;
26600;SDS011;14241;49.260;10.496;2023-02-22T06:58:26;21.15;;;17.83;;
26600;SDS011;14241;49.260;10.496;2023-02-22T07:00:51;26.08;;;19.42;;
26600;SDS011;14241;49.260;10.496;2023-02-22T07:03:16;24.40;;;19.77;;
26600;SDS011;14241;49.260;10.496;2023-02-22T07:05:42;25.42;;;20.00;;
26600;SDS011;14241;49.260;10.496;2023-02-22T07:08:07;24.17;;;19.67;;
26600;SDS011;14241;49.260;10.496;2023-02-22T07:10:33;25.17;;;19.40;;
26600;SDS011;14241;49.260;10.496;2023-02-22T07:12:58;24.70;;;20.48;;
26600;SDS011;14241;49.260;10.496;2023-02-22T07:15:24;26.15;;;21.58;;
26600;SDS011;14241;49.260;10.496;2023-02-22T07:17:50;24.75;;;20.75;;
26600;SDS011;14241;49.260;10.496;2023-02-22T07:20:16;27.65;;;21.20;;
26600;SDS011;14241;49.260;10.496;2023-02-22T07:22:42;30.50;;;20.92;;
26600;SDS011;14241;49.260;10.496;2023-02-22T07:25:07;28.45;;;22.55;;
26600;SDS011;14241;49.260;10.496;2023-02-22T07:27:35;27.52;;;20.42;;
26600;SDS011;14241;49.260;10.496;2023-02-22T07:30:00;25.98;;;19.02;;
26600;SDS011;14241;49.260;10.496;2023-02-22T07:32:25;26.57;;;19.80;;
26600;SDS011;14241;49.260;10.496;2023-02-22T07:34:50;26.70;;;20.30;;
26600;SDS011;14241;49.260;10.496;2023-02-22T07:37:15;26.00;;;18.98;;
26600;SDS011;14241;49.260;10.496;2023-02-22T07:39:41;24.67;;;19.65;;
26600;SDS011;14241;49.260;10.496;2023-02-22T07:42:07;24.05;;;19.67;;
26600;SDS011;14241;49.260;10.496;2023-02-22T07:44:33;27.08;;;20.05;;
26600;SDS011;14241;49.260;10.496;2023-02-22T07:46:58;26.87;;;21.33;;
26600;SDS011;14241;49.260;10.496;2023-02-22T07:49:24;29.73;;;21.20;;
26600;SDS011;14241;49.260;10.496;2023-02-22T07:51:49;27.58;;;20.50;;
26600;SDS011;14241;49.260;10.496;2023-02-22T07:54:15;24.60;;;19.48;;
26600;SDS011;14241;49.260;10.496;2023-02-22T07:56:44;27.20;;;20.40;;
26600;SDS011;14241;49.260;10.496;2023-02-22T07:59:09;27.05;;;20.90;;
26600;SDS011;14241;49.260;10.496;2023-02-22T08:01:34;30.65;;;20.38;;
26600;SDS011;14241;49.260;10.496;2023-02-22T08:03:59;24.08;;;18.17;;
26600;SDS011;14241;49.260;10.496;2023-02-22T08:06:24;24.40;;;18.67;;
26600;SDS011;14241;49.260;10.496;2023-02-22T08:08:50;23.03;;;18.33;;
26600;SDS011;14241;49.260;10.496;2023-02-22T08:11:15;24.77;;;17.95;;
26600;SDS011;14241;49.260;10.496;2023-02-22T08:13:40;23.23;;;18.77;;
26600;SDS011;14241;49.260;10.496;2023-02-22T08:16:05;23.98;;;18.23;;
26600;SDS011;14241;49.260;10.496;2023-02-22T08:18:31;22.58;;;19.23;;
26600;SDS011;14241;49.260;10.496;2023-02-22T08:20:56;22.23;;;17.20;;
26600;SDS011;14241;49.260;10.496;2023-02-22T08:23:22;22.65;;;17.15;;
26600;SDS011;14241;49.260;10.496;2023-02-22T08:25:49;23.88;;;16.92;;
26600;SDS011;14241;49.260;10.496;2023-02-22T08:28:15;20.73;;;17.75;;
26600;SDS011;14241;49.260;10.496;2023-02-22T08:30:40;22.35;;;16.17;;
26600;SDS011;14241;49.260;10.496;2023-02-22T08:33:10;21.85;;;15.95;;
26600;SDS011;14241;49.260;10.496;2023-02-22T08:35:38;18.85;;;14.77;;
26600;SDS011;14241;49.260;10.496;2023-02-22T08:38:05;21.10;;;16.40;;
26600;SDS011;14241;49.260;10.496;2023-02-22T08:40:32;19.60;;;15.00;;
26600;SDS011;14241;49.260;10.496;2023-02-22T08:42:58;19.55;;;14.18;;
26600;SDS011;14241;49.260;10.496;2023-02-22T08:45:23;17.98;;;15.20;;
26600;SDS011;14241;49.260;10.496;2023-02-22T08:47:48;18.35;;;14.70;;
26600;SDS011;14241;49.260;10.496;2023-02-22T08:50:24;17.42;;;14.38;;
26600;SDS011;14241;49.260;10.496;2023-02-22T08:52:49;18.33;;;14.40;;
26600;SDS011;14241;49.260;10.496;2023-02-22T08:55:17;16.80;;;12.82;;
26600;SDS011;14241;49.260;10.496;2023-02-22T08:57:42;16.42;;;13.70;;
26600;SDS011;14241;49.260;10.496;2023-02-22T09:00:08;18.67;;;12.70;;
26600;SDS011;14241;49.260;10.496;2023-02-22T09:02:33;17.90;;;13.55;;
26600;SDS011;14241;49.260;10.496;2023-02-22T09:04:59;17.67;;;12.70;;
26600;SDS011;14241;49.260;10.496;2023-02-22T09:07:24;19.65;;;12.95;;
26600;SDS011;14241;49.260;10.496;2023-02-22T09:09:49;15.50;;;12.32;;
26600;SDS011;14241;49.260;10.496;2023-02-22T09:12:14;14.75;;;12.85;;
26600;SDS011;14241;49.260;10.496;2023-02-22T09:14:40;17.98;;;13.65;;
26600;SDS011;14241;49.260;10.496;2023-02-22T09:17:06;16.08;;;12.23;;
26600;SDS011;14241;49.260;10.496;2023-02-22T09:19:32;16.33;;;11.27;;
26600;SDS011;14241;49.260;10.496;2023-02-22T09:21:57;19.17;;;14.02;;
26600;SDS011;14241;49.260;10.496;2023-02-22T09:24:24;18.00;;;14.43;;
26600;SDS011;14241;49.260;10.496;2023-02-22T09:26:49;13.30;;;11.07;;
26600;SDS011;14241;49.260;10.496;2023-02-22T09:29:20;12.30;;;10.20;;
26600;SDS011;14241;49.260;10.496;2023-02-22T09:31:49;13.40;;;10.93;;
26600;SDS011;14241;49.260;10.496;2023-02-22T09:34:15;13.77;;;9.23;;
26600;SDS011;14241;49.260;10.496;2023-02-22T09:36:41;13.25;;;9.52;;
26600;SDS011;14241;49.260;10.496;2023-02-22T09:39:06;13.27;;;9.35;;
26600;SDS011;14241;49.260;10.496;2023-02-22T09:41:38;13.63;;;9.68;;
26600;SDS011;14241;49.260;10.496;2023-02-22T09:46:45;12.88;;;9.43;;
26600;SDS011;14241;49.260;10.496;2023-02-22T09:51:44;12.98;;;8.68;;
26600;SDS011;14241;49.260;10.496;2023-02-22T09:54:35;11.35;;;8.82;;
26600;SDS011;14241;49.260;10.496;2023-02-22T09:56:59;11.48;;;8.18;;
26600;SDS011;14241;49.260;10.496;2023-02-22T09:59:27;9.75;;;7.78;;
26600;SDS011;14241;49.260;10.496;2023-02-22T10:02:01;10.75;;;7.90;;
26600;SDS011;14241;49.260;10.496;2023-02-22T10:07:01;9.55;;;7.88;;
26600;SDS011;14241;49.260;10.496;2023-02-22T10:09:30;10.65;;;8.15;;
26600;SDS011;14241;49.260;10.496;2023-02-22T10:12:09;9.93;;;7.13;;
26600;SDS011;14241;49.260;10.496;2023-02-22T10:25:14;7.95;;;6.93;;
26600;SDS011;14241;49.260;10.496;2023-02-22T10:27:46;9.95;;;6.50;;
26600;SDS011;14241;49.260;10.496;2023-02-22T10:30:18;8.60;;;6.47;;
26600;SDS011;14241;49.260;10.496;2023-02-22T10:32:45;9.20;;;6.93;;
26600;SDS011;14241;49.260;10.496;2023-02-22T10:35:25;9.02;;;6.38;;
26600;SDS011;14241;49.260;10.496;2023-02-22T10:37:52;9.13;;;6.93;;
26600;SDS011;14241;49.260;10.496;2023-02-22T10:40:20;23.17;;;15.07;;
26600;SDS011;14241;49.260;10.496;2023-02-22T10:42:47;11.10;;;7.75;;
26600;SDS011;14241;49.260;10.496;2023-02-22T10:45:20;8.93;;;6.95;;
26600;SDS011;14241;49.260;10.496;2023-02-22T10:47:46;8.43;;;6.13;;
26600;SDS011;14241;49.260;10.496;2023-02-22T10:50:12;8.27;;;6.18;;
26600;SDS011;14241;49.260;10.496;2023-02-22T10:52:38;11.13;;;6.72;;
26600;SDS011;14241;49.260;10.496;2023-02-22T10:55:03;10.07;;;6.57;;
26600;SDS011;14241;49.260;10.496;2023-02-22T10:57:36;9.13;;;6.45;;
26600;SDS011;14241;49.260;10.496;2023-02-22T11:00:15;8.30;;;5.75;;
26600;SDS011;14241;49.260;10.496;2023-02-22T11:02:52;7.50;;;5.45;;
26600;SDS011;14241;49.260;10.496;2023-02-22T11:08:12;6.97;;;5.27;;
26600;SDS011;14241;49.260;10.496;2023-02-22T11:10:39;14.77;;;5.75;;
26600;SDS011;14241;49.260;10.496;2023-02-22T11:13:24;7.63;;;5.40;;
26600;SDS011;14241;49.260;10.496;2023-02-22T11:15:53;9.02;;;6.00;;
26600;SDS011;14241;49.260;10.496;2023-02-22T11:18:34;8.18;;;5.55;;
26600;SDS011;14241;49.260;10.496;2023-02-22T11:21:00;6.75;;;5.50;;
26600;SDS011;14241;49.260;10.496;2023-02-22T11:23:26;11.93;;;5.20;;
26600;SDS011;14241;49.260;10.496;2023-02-22T11:25:57;8.27;;;5.18;;
26600;SDS011;14241;49.260;10.496;2023-02-22T11:28:28;9.32;;;5.47;;
26600;SDS011;14241;49.260;10.496;2023-02-22T11:31:14;7.97;;;5.57;;
26600;SDS011;14241;49.260;10.496;2023-02-22T11:33:45;6.53;;;4.20;;
26600;SDS011;14241;49.260;10.496;2023-02-22T11:36:11;8.13;;;5.20;;
26600;SDS011;14241;49.260;10.496;2023-02-22T11:38:53;6.63;;;4.95;;
26600;SDS011;14241;49.260;10.496;2023-02-22T11:41:28;8.40;;;5.60;;
26600;SDS011;14241;49.260;10.496;2023-02-22T11:43:54;6.70;;;5.53;;
26600;SDS011;14241;49.260;10.496;2023-02-22T11:46:35;7.85;;;5.05;;
26600;SDS011;14241;49.260;10.496;2023-02-22T11:49:02;7.78;;;5.15;;
26600;SDS011;14241;49.260;10.496;2023-02-22T11:51:50;6.60;;;4.72;;
26600;SDS011;14241;49.260;10.496;2023-02-22T11:54:26;7.15;;;5.13;;
26600;SDS011;14241;49.260;10.496;2023-02-22T11:59:51;6.43;;;5.43;;
26600;SDS011;14241;49.260;10.496;2023-02-22T12:03:24;6.40;;;4.95;;
26600;SDS011;14241;49.260;10.496;2023-02-22T12:05:24;6.45;;;4.40;;
26600;SDS011;14241;49.260;10.496;2023-02-22T12:10:25;6.25;;;4.80;;
26600;SDS011;14241;49.260;10.496;2023-02-22T12:13:41;7.00;;;4.57;;
26600;SDS011;14241;49.260;10.496;2023-02-22T12:16:04;5.20;;;4.47;;
26600;SDS011;14241;49.260;10.496;2023-02-22T12:18:34;7.07;;;5.05;;
26600;SDS011;14241;49.260;10.496;2023-02-22T12:21:01;6.57;;;4.80;;
26600;SDS011;14241;49.260;10.496;2023-02-22T12:23:32;6.78;;;4.97;;
26600;SDS011;14241;49.260;10.496;2023-02-22T12:26:00;8.48;;;5.05;;
26600;SDS011;14241;49.260;10.496;2023-02-22T12:30:55;5.93;;;4.60;;
26600;SDS011;14241;49.260;10.496;2023-02-22T12:33:25;6.93;;;3.92;;
26600;SDS011;14241;49.260;10.496;2023-02-22T12:35:55;6.20;;;4.13;;
26600;SDS011;14241;49.260;10.496;2023-02-22T12:46:02;5.15;;;3.38;;
26600;SDS011;14241;49.260;10.496;2023-02-22T12:48:35;5.45;;;3.83;;
26600;SDS011;14241;49.260;10.496;2023-02-22T12:51:48;4.68;;;3.70;;
26600;SDS011;14241;49.260;10.496;2023-02-22T12:56:42;5.13;;;4.03;;
26600;SDS011;14241;49.260;10.496;2023-02-22T13:01:36;5.07;;;3.45;;
26600;SDS011;14241;49.260;10.496;2023-02-22T13:04:02;6.03;;;4.32;;
26600;SDS011;14241;49.260;10.496;2023-02-22T13:21:31;16.55;;;7.45;;
26600;SDS011;14241;49.260;10.496;2023-02-22T13:24:22;15.02;;;7.20;;
26600;SDS011;14241;49.260;10.496;2023-02-22T13:31:49;6.93;;;3.50;;
26600;SDS011;14241;49.260;10.496;2023-02-22T13:36:50;3.53;;;2.97;;
26600;SDS011;14241;49.260;10.496;2023-02-22T13:44:53;5.93;;;4.03;;
26600;SDS011;14241;49.260;10.496;2023-02-22T13:47:35;8.25;;;5.45;;
26600;SDS011;14241;49.260;10.496;2023-02-22T13:52:40;15.70;;;8.50;;
26600;SDS011;14241;49.260;10.496;2023-02-22T13:55:09;9.95;;;5.50;;
26600;SDS011;14241;49.260;10.496;2023-02-22T13:57:40;5.60;;;2.92;;
26600;SDS011;14241;49.260;10.496;2023-02-22T14:10:59;4.45;;;2.92;;
26600;SDS011;14241;49.260;10.496;2023-02-22T14:23:40;4.03;;;3.20;;
26600;SDS011;14241;49.260;10.496;2023-02-22T14:28:41;3.70;;;2.63;;
26600;SDS011;14241;49.260;10.496;2023-02-22T14:31:13;3.58;;;2.63;;
26600;SDS011;14241;49.260;10.496;2023-02-22T14:36:42;5.40;;;2.78;;
26600;SDS011;14241;49.260;10.496;2023-02-22T14:41:46;6.97;;;2.47;;
26600;SDS011;14241;49.260;10.496;2023-02-22T14:44:14;4.10;;;2.65;;
26600;SDS011;14241;49.260;10.496;2023-02-22T14:46:41;3.83;;;2.28;;
26600;SDS011;14241;49.260;10.496;2023-02-22T14:49:11;3.42;;;2.13;;
26600;SDS011;14241;49.260;10.496;2023-02-22T14:51:43;3.15;;;2.67;;
26600;SDS011;14241;49.260;10.496;2023-02-22T14:56:59;3.97;;;2.53;;
26600;SDS011;14241;49.260;10.496;2023-02-22T14:59:36;4.03;;;2.20;;
26600;SDS011;14241;49.260;10.496;2023-02-22T15:02:10;4.68;;;3.03;;
26600;SDS011;14241;49.260;10.496;2023-02-22T15:04:36;3.97;;;3.50;;
26600;SDS011;14241;49.260;10.496;2023-02-22T15:07:06;3.87;;;3.33;;
26600;SDS011;14241;49.260;10.496;2023-02-22T15:09:32;5.40;;;3.42;;
26600;SDS011;14241;49.260;10.496;2023-02-22T15:14:26;6.40;;;3.93;;
26600;SDS011;14241;49.260;10.496;2023-02-22T15:16:52;10.10;;;3.50;;
26600;SDS011;14241;49.260;10.496;2023-02-22T15:19:39;7.65;;;3.65;;
26600;SDS011;14241;49.260;10.496;2023-02-22T15:22:03;6.88;;;3.42;;
26600;SDS011;14241;49.260;10.496;2023-02-22T15:24:33;7.55;;;3.90;;
26600;SDS011;14241;49.260;10.496;2023-02-22T15:27:02;7.32;;;3.72;;
26600;SDS011;14241;49.260;10.496;2023-02-22T15:29:31;6.72;;;3.60;;
26600;SDS011;14241;49.260;10.496;2023-02-22T15:31:57;7.05;;;3.95;;
26600;SDS011;14241;49.260;10.496;2023-02-22T15:34:24;4.53;;;3.60;;
26600;SDS011;14241;49.260;10.496;2023-02-22T15:36:51;5.22;;;3.63;;
26600;SDS011;14241;49.260;10.496;2023-02-22T15:39:30;5.30;;;3.78;;
26600;SDS011;14241;49.260;10.496;2023-02-22T15:44:33;8.35;;;4.10;;
26600;SDS011;14241;49.260;10.496;2023-02-22T15:46:58;6.45;;;3.70;;
26600;SDS011;14241;49.260;10.496;2023-02-22T15:49:24;6.70;;;3.70;;
26600;SDS011;14241;49.260;10.496;2023-02-22T15:52:01;5.70;;;3.55;;
26600;SDS011;14241;49.260;10.496;2023-02-22T15:54:26;7.32;;;3.25;;
26600;SDS011;14241;49.260;10.496;2023-02-22T15:56:51;3.55;;;2.65;;
26600;SDS011;14241;49.260;10.496;2023-02-22T15:59:19;5.70;;;2.90;;
26600;SDS011;14241;49.260;10.496;2023-02-22T16:01:47;4.45;;;2.88;;
26600;SDS011;14241;49.260;10.496;2023-02-22T16:04:17;5.45;;;3.28;;
26600;SDS011;14241;49.260;10.496;2023-02-22T16:06:43;3.42;;;2.53;;
26600;SDS011;14241;49.260;10.496;2023-02-22T16:09:16;6.03;;;3.40;;
26600;SDS011;14241;49.260;10.496;2023-02-22T16:11:42;9.07;;;3.35;;
26600;SDS011;14241;49.260;10.496;2023-02-22T16:14:28;4.50;;;3.45;;
26600;SDS011;14241;49.260;10.496;2023-02-22T16:17:10;5.20;;;2.25;;
26600;SDS011;14241;49.260;10.496;2023-02-22T16:19:41;3.90;;;2.25;;
26600;SDS011;14241;49.260;10.496;2023-02-22T16:22:23;5.70;;;2.35;;
26600;SDS011;14241;49.260;10.496;2023-02-22T16:24:51;7.75;;;2.38;;
26600;SDS011;14241;49.260;10.496;2023-02-22T16:27:17;6.28;;;2.55;;
26600;SDS011;14241;49.260;10.496;2023-02-22T16:29:43;4.85;;;2.45;;
26600;SDS011;14241;49.260;10.496;2023-02-22T16:32:09;5.22;;;2.63;;
26600;SDS011;14241;49.260;10.496;2023-02-22T16:34:35;4.75;;;2.60;;
26600;SDS011;14241;49.260;10.496;2023-02-22T16:37:00;3.28;;;2.22;;
26600;SDS011;14241;49.260;10.496;2023-02-22T16:39:27;7.15;;;2.72;;
26600;SDS011;14241;49.260;10.496;2023-02-22T16:41:53;5.78;;;2.50;;
26600;SDS011;14241;49.260;10.496;2023-02-22T16:44:20;3.40;;;2.28;;
26600;SDS011;14241;49.260;10.496;2023-02-22T16:46:45;5.20;;;2.30;;
26600;SDS011;14241;49.260;10.496;2023-02-22T16:49:10;4.40;;;2.75;;
26600;SDS011;14241;49.260;10.496;2023-02-22T16:51:40;5.68;;;2.30;;